sensor_id;sensor_type;location;lat;lon;timestamp;temperature;humidity
18189;DHT22;9219;50.396;8.546;2023-12-14T00:24:23;7.90;99.90
18189;DHT22;9219;50.396;8.546;2023-12-14T00:27:00;7.70;99.90
18189;DHT22;9219;50.396;8.546;2023-12-14T00:29:28;7.70;99.90
18189;DHT22;9219;50.396;8.546;2023-12-14T00:31:59;7.60;99.90
18189;DHT22;9219;50.396;8.546;2023-12-14T00:34:26;7.50;99.90
18189;DHT22;9219;50.396;8.546;2023-12-14T00:36:53;7.50;99.90
18189;DHT22;9219;50.396;8.546;2023-12-14T00:39:22;7.40;99.90
18189;DHT22;9219;50.396;8.546;2023-12-14T00:42:34;7.30;99.90
18189;DHT22;9219;50.396;8.546;2023-12-14T00:45:39;7.40;99.90
18189;DHT22;9219;50.396;8.546;2023-12-14T00:53:34;7.40;99.90
18189;DHT22;9219;50.396;8.546;2023-12-14T00:56:02;7.40;99.90
18189;DHT22;9219;50.396;8.546;2023-12-14T00:58:29;7.30;99.90
18189;DHT22;9219;50.396;8.546;2023-12-14T01:00:58;7.20;99.90
18189;DHT22;9219;50.396;8.546;2023-12-14T01:04:02;7.20;99.90
18189;DHT22;9219;50.396;8.546;2023-12-14T01:06:48;7.20;99.90
18189;DHT22;9219;50.396;8.546;2023-12-14T01:09:17;7.30;99.90
18189;DHT22;9219;50.396;8.546;2023-12-14T01:11:44;7.30;99.90
18189;DHT22;9219;50.396;8.546;2023-12-14T01:15:33;7.20;99.90
18189;DHT22;9219;50.396;8.546;2023-12-14T01:18:00;7.10;99.90
18189;DHT22;9219;50.396;8.546;2023-12-14T01:20:28;7.10;99.90
18189;DHT22;9219;50.396;8.546;2023-12-14T01:22:55;7.00;99.90
18189;DHT22;9219;50.396;8.546;2023-12-14T01:25:23;7.10;99.90
18189;DHT22;9219;50.396;8.546;2023-12-14T01:27:50;7.20;99.90
18189;DHT22;9219;50.396;8.546;2023-12-14T01:30:17;7.20;99.90
18189;DHT22;9219;50.396;8.546;2023-12-14T01:40:49;7.00;99.90
18189;DHT22;9219;50.396;8.546;2023-12-14T01:46:42;6.90;99.90
18189;DHT22;9219;50.396;8.546;2023-12-14T01:49:15;7.00;99.90
18189;DHT22;9219;50.396;8.546;2023-12-14T01:51:52;7.10;99.90
18189;DHT22;9219;50.396;8.546;2023-12-14T01:58:41;7.30;99.90
18189;DHT22;9219;50.396;8.546;2023-12-14T02:02:11;7.10;99.90
18189;DHT22;9219;50.396;8.546;2023-12-14T02:08:54;7.00;99.90
18189;DHT22;9219;50.396;8.546;2023-12-14T02:14:30;7.30;99.90
18189;DHT22;9219;50.396;8.546;2023-12-14T02:34:39;7.20;99.90
18189;DHT22;9219;50.396;8.546;2023-12-14T02:37:06;7.20;99.90
18189;DHT22;9219;50.396;8.546;2023-12-14T02:39:34;7.20;99.90
18189;DHT22;9219;50.396;8.546;2023-12-14T02:42:01;7.20;99.90
18189;DHT22;9219;50.396;8.546;2023-12-14T02:44:29;7.20;99.90
18189;DHT22;9219;50.396;8.546;2023-12-14T02:46:56;7.10;99.90
18189;DHT22;9219;50.396;8.546;2023-12-14T02:49:26;7.20;99.90
18189;DHT22;9219;50.396;8.546;2023-12-14T02:52:04;7.40;99.90
18189;DHT22;9219;50.396;8.546;2023-12-14T02:54:53;7.50;99.90
18189;DHT22;9219;50.396;8.546;2023-12-14T03:00:01;6.40;99.90
18189;DHT22;9219;50.396;8.546;2023-12-14T03:02:28;6.90;99.90
18189;DHT22;9219;50.396;8.546;2023-12-14T03:04:56;7.20;99.90
18189;DHT22;9219;50.396;8.546;2023-12-14T03:07:32;7.50;99.90
18189;DHT22;9219;50.396;8.546;2023-12-14T03:10:35;7.40;99.90
18189;DHT22;9219;50.396;8.546;2023-12-14T03:13:04;7.20;99.90
18189;DHT22;9219;50.396;8.546;2023-12-14T03:15:32;6.80;99.90
18189;DHT22;9219;50.396;8.546;2023-12-14T03:18:00;6.80;99.90
18189;DHT22;9219;50.396;8.546;2023-12-14T03:20:28;6.60;99.90
18189;DHT22;9219;50.396;8.546;2023-12-14T03:28:47;6.40;99.90
18189;DHT22;9219;50.396;8.546;2023-12-14T03:31:42;6.50;99.90
18189;DHT22;9219;50.396;8.546;2023-12-14T03:34:16;6.60;99.90
18189;DHT22;9219;50.396;8.546;2023-12-14T03:40:54;6.70;99.90
18189;DHT22;9219;50.396;8.546;2023-12-14T03:43:22;6.30;99.90
18189;DHT22;9219;50.396;8.546;2023-12-14T03:45:51;6.40;99.90
18189;DHT22;9219;50.396;8.546;2023-12-14T03:48:18;6.40;99.90
18189;DHT22;9219;50.396;8.546;2023-12-14T03:50:45;6.50;99.90
18189;DHT22;9219;50.396;8.546;2023-12-14T03:53:12;6.30;99.90
18189;DHT22;9219;50.396;8.546;2023-12-14T03:59:51;5.90;99.90
18189;DHT22;9219;50.396;8.546;2023-12-14T04:02:59;5.90;99.90
18189;DHT22;9219;50.396;8.546;2023-12-14T04:05:26;5.80;99.90
18189;DHT22;9219;50.396;8.546;2023-12-14T04:07:54;5.90;99.90
18189;DHT22;9219;50.396;8.546;2023-12-14T04:10:21;5.70;99.90
18189;DHT22;9219;50.396;8.546;2023-12-14T04:12:48;5.60;99.90
18189;DHT22;9219;50.396;8.546;2023-12-14T04:15:16;5.60;99.90
18189;DHT22;9219;50.396;8.546;2023-12-14T04:17:44;5.50;99.90
18189;DHT22;9219;50.396;8.546;2023-12-14T04:25:05;5.40;99.90
18189;DHT22;9219;50.396;8.546;2023-12-14T04:27:33;5.50;99.90
18189;DHT22;9219;50.396;8.546;2023-12-14T04:30:00;5.40;99.90
18189;DHT22;9219;50.396;8.546;2023-12-14T04:32:27;5.40;99.90
18189;DHT22;9219;50.396;8.546;2023-12-14T04:34:56;5.20;99.90
18189;DHT22;9219;50.396;8.546;2023-12-14T04:37:24;5.20;99.90
18189;DHT22;9219;50.396;8.546;2023-12-14T04:39:51;5.30;99.90
18189;DHT22;9219;50.396;8.546;2023-12-14T04:46:48;5.30;99.90
18189;DHT22;9219;50.396;8.546;2023-12-14T04:49:15;5.50;99.90
18189;DHT22;9219;50.396;8.546;2023-12-14T04:51:44;5.20;99.90
18189;DHT22;9219;50.396;8.546;2023-12-14T04:55:10;5.20;99.90
18189;DHT22;9219;50.396;8.546;2023-12-14T04:58:03;5.30;99.90
18189;DHT22;9219;50.396;8.546;2023-12-14T05:00:45;5.40;99.90
18189;DHT22;9219;50.396;8.546;2023-12-14T05:03:16;5.70;99.90
18189;DHT22;9219;50.396;8.546;2023-12-14T05:05:59;5.60;99.90
18189;DHT22;9219;50.396;8.546;2023-12-14T05:08:26;5.40;99.90
18189;DHT22;9219;50.396;8.546;2023-12-14T05:17:55;5.70;99.90
18189;DHT22;9219;50.396;8.546;2023-12-14T05:20:23;5.60;99.90
18189;DHT22;9219;50.396;8.546;2023-12-14T05:22:50;5.40;99.90
18189;DHT22;9219;50.396;8.546;2023-12-14T05:25:20;5.40;99.90
18189;DHT22;9219;50.396;8.546;2023-12-14T05:28:11;5.60;99.90
18189;DHT22;9219;50.396;8.546;2023-12-14T05:30:44;5.90;99.90
18189;DHT22;9219;50.396;8.546;2023-12-14T05:33:51;5.80;99.90
18189;DHT22;9219;50.396;8.546;2023-12-14T05:37:00;5.60;99.90
18189;DHT22;9219;50.396;8.546;2023-12-14T05:39:27;5.50;99.90
18189;DHT22;9219;50.396;8.546;2023-12-14T05:46:36;5.40;99.90
18189;DHT22;9219;50.396;8.546;2023-12-14T05:49:04;5.30;99.90
18189;DHT22;9219;50.396;8.546;2023-12-14T05:51:33;5.40;99.90
18189;DHT22;9219;50.396;8.546;2023-12-14T05:54:00;5.50;99.90
18189;DHT22;9219;50.396;8.546;2023-12-14T05:56:27;5.50;99.90
18189;DHT22;9219;50.396;8.546;2023-12-14T05:58:56;5.50;99.90
18189;DHT22;9219;50.396;8.546;2023-12-14T06:01:24;5.50;99.90
18189;DHT22;9219;50.396;8.546;2023-12-14T06:08:56;5.40;99.90
18189;DHT22;9219;50.396;8.546;2023-12-14T06:11:24;5.60;99.90
18189;DHT22;9219;50.396;8.546;2023-12-14T06:13:52;5.60;99.90
18189;DHT22;9219;50.396;8.546;2023-12-14T06:16:19;5.70;99.90
18189;DHT22;9219;50.396;8.546;2023-12-14T06:18:46;5.80;99.90
18189;DHT22;9219;50.396;8.546;2023-12-14T06:21:13;6.00;99.90
18189;DHT22;9219;50.396;8.546;2023-12-14T06:23:40;6.10;99.90
18189;DHT22;9219;50.396;8.546;2023-12-14T06:31:12;6.00;99.90
18189;DHT22;9219;50.396;8.546;2023-12-14T06:33:40;5.80;99.90
18189;DHT22;9219;50.396;8.546;2023-12-14T06:36:08;6.10;99.90
18189;DHT22;9219;50.396;8.546;2023-12-14T06:38:38;6.20;99.90
18189;DHT22;9219;50.396;8.546;2023-12-14T06:41:06;6.20;99.90
18189;DHT22;9219;50.396;8.546;2023-12-14T06:43:33;6.30;99.90
18189;DHT22;9219;50.396;8.546;2023-12-14T06:46:00;6.30;99.90
18189;DHT22;9219;50.396;8.546;2023-12-14T06:53:06;6.10;99.90
18189;DHT22;9219;50.396;8.546;2023-12-14T06:55:33;6.30;99.90
18189;DHT22;9219;50.396;8.546;2023-12-14T06:58:00;6.50;99.90
18189;DHT22;9219;50.396;8.546;2023-12-14T07:00:28;6.40;99.90
18189;DHT22;9219;50.396;8.546;2023-12-14T07:02:56;6.40;99.90
18189;DHT22;9219;50.396;8.546;2023-12-14T07:05:23;6.40;99.90
18189;DHT22;9219;50.396;8.546;2023-12-14T07:07:51;6.40;99.90
18189;DHT22;9219;50.396;8.546;2023-12-14T07:15:24;6.30;99.90
18189;DHT22;9219;50.396;8.546;2023-12-14T07:17:51;6.00;99.90
18189;DHT22;9219;50.396;8.546;2023-12-14T07:20:18;6.10;99.90
18189;DHT22;9219;50.396;8.546;2023-12-14T07:22:45;6.20;99.90
18189;DHT22;9219;50.396;8.546;2023-12-14T07:25:13;6.20;99.90
18189;DHT22;9219;50.396;8.546;2023-12-14T07:27:40;6.20;99.90
18189;DHT22;9219;50.396;8.546;2023-12-14T07:30:08;6.00;99.90
18189;DHT22;9219;50.396;8.546;2023-12-14T07:37:37;6.10;99.90
18189;DHT22;9219;50.396;8.546;2023-12-14T07:40:06;6.00;99.90
18189;DHT22;9219;50.396;8.546;2023-12-14T07:42:39;5.90;99.90
18189;DHT22;9219;50.396;8.546;2023-12-14T07:45:07;6.00;99.90
18189;DHT22;9219;50.396;8.546;2023-12-14T07:47:38;5.90;99.90
18189;DHT22;9219;50.396;8.546;2023-12-14T07:50:06;5.60;99.90
18189;DHT22;9219;50.396;8.546;2023-12-14T07:52:34;5.70;99.90
18189;DHT22;9219;50.396;8.546;2023-12-14T08:00:02;5.50;99.90
18189;DHT22;9219;50.396;8.546;2023-12-14T08:02:31;5.60;99.90
18189;DHT22;9219;50.396;8.546;2023-12-14T08:04:59;5.70;99.90
18189;DHT22;9219;50.396;8.546;2023-12-14T08:07:27;5.30;99.90
18189;DHT22;9219;50.396;8.546;2023-12-14T08:09:55;5.40;99.90
18189;DHT22;9219;50.396;8.546;2023-12-14T08:12:24;5.50;99.90
18189;DHT22;9219;50.396;8.546;2023-12-14T08:14:51;5.60;99.90
18189;DHT22;9219;50.396;8.546;2023-12-14T08:22:14;5.50;99.90
18189;DHT22;9219;50.396;8.546;2023-12-14T08:24:42;5.20;99.90
18189;DHT22;9219;50.396;8.546;2023-12-14T08:27:09;5.10;99.90
18189;DHT22;9219;50.396;8.546;2023-12-14T08:29:36;5.00;99.90
18189;DHT22;9219;50.396;8.546;2023-12-14T08:32:05;5.00;99.90
18189;DHT22;9219;50.396;8.546;2023-12-14T08:34:32;5.20;99.90
18189;DHT22;9219;50.396;8.546;2023-12-14T08:37:00;5.20;99.90
18189;DHT22;9219;50.396;8.546;2023-12-14T08:44:33;5.10;99.90
18189;DHT22;9219;50.396;8.546;2023-12-14T08:47:01;5.50;99.90
18189;DHT22;9219;50.396;8.546;2023-12-14T08:49:31;5.50;99.90
18189;DHT22;9219;50.396;8.546;2023-12-14T08:52:00;5.30;99.90
18189;DHT22;9219;50.396;8.546;2023-12-14T08:54:27;5.40;99.90
18189;DHT22;9219;50.396;8.546;2023-12-14T08:56:55;5.50;99.90
18189;DHT22;9219;50.396;8.546;2023-12-14T08:59:23;5.50;99.90
18189;DHT22;9219;50.396;8.546;2023-12-14T09:06:55;5.50;99.90
18189;DHT22;9219;50.396;8.546;2023-12-14T09:09:23;5.60;99.90
18189;DHT22;9219;50.396;8.546;2023-12-14T09:11:50;5.50;99.90
18189;DHT22;9219;50.396;8.546;2023-12-14T09:14:21;5.50;99.90
18189;DHT22;9219;50.396;8.546;2023-12-14T09:16:48;5.60;99.90
18189;DHT22;9219;50.396;8.546;2023-12-14T09:19:16;5.60;99.90
18189;DHT22;9219;50.396;8.546;2023-12-14T09:21:43;5.50;99.90
18189;DHT22;9219;50.396;8.546;2023-12-14T09:29:18;5.50;99.90
18189;DHT22;9219;50.396;8.546;2023-12-14T09:31:46;5.50;99.90
18189;DHT22;9219;50.396;8.546;2023-12-14T09:34:13;5.60;99.90
18189;DHT22;9219;50.396;8.546;2023-12-14T09:36:41;5.50;99.90
18189;DHT22;9219;50.396;8.546;2023-12-14T09:39:08;5.50;99.90
18189;DHT22;9219;50.396;8.546;2023-12-14T09:41:36;5.30;99.90
18189;DHT22;9219;50.396;8.546;2023-12-14T09:44:06;5.30;99.90
18189;DHT22;9219;50.396;8.546;2023-12-14T09:51:32;5.50;99.90
18189;DHT22;9219;50.396;8.546;2023-12-14T09:54:01;5.20;99.90
18189;DHT22;9219;50.396;8.546;2023-12-14T09:56:29;5.50;99.90
18189;DHT22;9219;50.396;8.546;2023-12-14T09:58:56;5.40;99.90
18189;DHT22;9219;50.396;8.546;2023-12-14T10:01:25;5.20;99.90
18189;DHT22;9219;50.396;8.546;2023-12-14T10:04:07;5.10;99.90
18189;DHT22;9219;50.396;8.546;2023-12-14T10:06:36;5.30;99.90
18189;DHT22;9219;50.396;8.546;2023-12-14T10:13:45;5.40;99.90
18189;DHT22;9219;50.396;8.546;2023-12-14T10:16:12;5.30;99.90
18189;DHT22;9219;50.396;8.546;2023-12-14T10:18:39;5.30;99.90
18189;DHT22;9219;50.396;8.546;2023-12-14T10:21:07;5.10;99.90
18189;DHT22;9219;50.396;8.546;2023-12-14T10:23:35;5.30;99.90
18189;DHT22;9219;50.396;8.546;2023-12-14T10:26:04;5.40;99.90
18189;DHT22;9219;50.396;8.546;2023-12-14T10:28:32;5.40;99.90
18189;DHT22;9219;50.396;8.546;2023-12-14T10:33:42;5.20;99.90
18189;DHT22;9219;50.396;8.546;2023-12-14T10:36:10;5.30;99.90
18189;DHT22;9219;50.396;8.546;2023-12-14T10:38:37;5.40;99.90
18189;DHT22;9219;50.396;8.546;2023-12-14T10:41:05;5.30;99.90
18189;DHT22;9219;50.396;8.546;2023-12-14T10:43:36;5.20;99.90
18189;DHT22;9219;50.396;8.546;2023-12-14T10:46:16;5.30;99.90
18189;DHT22;9219;50.396;8.546;2023-12-14T10:48:45;5.50;99.90
18189;DHT22;9219;50.396;8.546;2023-12-14T10:56:18;5.50;99.90
18189;DHT22;9219;50.396;8.546;2023-12-14T10:58:47;5.30;99.90
18189;DHT22;9219;50.396;8.546;2023-12-14T11:01:15;5.40;99.90
18189;DHT22;9219;50.396;8.546;2023-12-14T11:03:43;5.30;99.90
18189;DHT22;9219;50.396;8.546;2023-12-14T11:06:21;5.20;99.90
18189;DHT22;9219;50.396;8.546;2023-12-14T11:08:57;5.20;99.90
18189;DHT22;9219;50.396;8.546;2023-12-14T11:11:29;5.30;99.90
18189;DHT22;9219;50.396;8.546;2023-12-14T11:19:27;5.60;99.90
18189;DHT22;9219;50.396;8.546;2023-12-14T11:22:11;5.70;99.90
18189;DHT22;9219;50.396;8.546;2023-12-14T11:25:01;5.70;99.90
18189;DHT22;9219;50.396;8.546;2023-12-14T11:27:30;5.60;99.90
18189;DHT22;9219;50.396;8.546;2023-12-14T11:29:57;5.60;99.90
18189;DHT22;9219;50.396;8.546;2023-12-14T11:32:26;5.60;99.90
18189;DHT22;9219;50.396;8.546;2023-12-14T11:38:05;5.70;99.90
18189;DHT22;9219;50.396;8.546;2023-12-14T11:40:38;5.70;99.90
18189;DHT22;9219;50.396;8.546;2023-12-14T11:43:07;5.50;99.90
18189;DHT22;9219;50.396;8.546;2023-12-14T11:45:35;5.50;99.90
18189;DHT22;9219;50.396;8.546;2023-12-14T11:48:03;5.50;99.90
18189;DHT22;9219;50.396;8.546;2023-12-14T11:50:32;5.50;99.90
18189;DHT22;9219;50.396;8.546;2023-12-14T11:53:00;5.70;99.90
18189;DHT22;9219;50.396;8.546;2023-12-14T12:00:33;5.70;99.90
18189;DHT22;9219;50.396;8.546;2023-12-14T12:03:10;5.70;99.90
18189;DHT22;9219;50.396;8.546;2023-12-14T12:05:42;5.60;99.90
18189;DHT22;9219;50.396;8.546;2023-12-14T12:08:10;5.50;99.90
18189;DHT22;9219;50.396;8.546;2023-12-14T12:10:38;5.50;99.90
18189;DHT22;9219;50.396;8.546;2023-12-14T12:13:07;5.50;99.90
18189;DHT22;9219;50.396;8.546;2023-12-14T12:15:36;5.40;99.90
18189;DHT22;9219;50.396;8.546;2023-12-14T12:23:09;5.60;99.90
18189;DHT22;9219;50.396;8.546;2023-12-14T12:25:37;5.60;99.90
18189;DHT22;9219;50.396;8.546;2023-12-14T12:28:05;5.60;99.90
18189;DHT22;9219;50.396;8.546;2023-12-14T12:30:32;5.40;99.90
18189;DHT22;9219;50.396;8.546;2023-12-14T12:33:04;5.60;99.90
18189;DHT22;9219;50.396;8.546;2023-12-14T12:35:32;5.50;99.90
18189;DHT22;9219;50.396;8.546;2023-12-14T12:38:00;5.60;99.90
18189;DHT22;9219;50.396;8.546;2023-12-14T12:45:32;5.80;99.90
18189;DHT22;9219;50.396;8.546;2023-12-14T12:47:59;5.80;99.90
18189;DHT22;9219;50.396;8.546;2023-12-14T12:50:27;5.70;99.90
18189;DHT22;9219;50.396;8.546;2023-12-14T12:52:59;5.50;99.90
18189;DHT22;9219;50.396;8.546;2023-12-14T12:55:27;5.50;99.90
18189;DHT22;9219;50.396;8.546;2023-12-14T12:57:54;5.60;99.90
18189;DHT22;9219;50.396;8.546;2023-12-14T13:00:22;5.40;99.90
18189;DHT22;9219;50.396;8.546;2023-12-14T13:07:49;5.30;99.90
18189;DHT22;9219;50.396;8.546;2023-12-14T13:10:18;5.10;99.90
18189;DHT22;9219;50.396;8.546;2023-12-14T13:12:57;5.30;99.90
18189;DHT22;9219;50.396;8.546;2023-12-14T13:15:25;5.40;99.90
18189;DHT22;9219;50.396;8.546;2023-12-14T13:17:53;5.40;99.90
18189;DHT22;9219;50.396;8.546;2023-12-14T13:20:21;5.50;99.90
18189;DHT22;9219;50.396;8.546;2023-12-14T13:22:49;5.50;99.90
18189;DHT22;9219;50.396;8.546;2023-12-14T13:30:18;5.60;99.90
18189;DHT22;9219;50.396;8.546;2023-12-14T13:32:47;5.60;99.90
18189;DHT22;9219;50.396;8.546;2023-12-14T13:35:15;5.60;99.90
18189;DHT22;9219;50.396;8.546;2023-12-14T13:37:42;5.70;99.90
18189;DHT22;9219;50.396;8.546;2023-12-14T13:40:10;5.50;99.90
18189;DHT22;9219;50.396;8.546;2023-12-14T13:42:39;5.40;99.90
18189;DHT22;9219;50.396;8.546;2023-12-14T13:45:21;5.40;99.90
18189;DHT22;9219;50.396;8.546;2023-12-14T13:52:50;5.40;99.90
18189;DHT22;9219;50.396;8.546;2023-12-14T13:55:18;5.40;99.90
18189;DHT22;9219;50.396;8.546;2023-12-14T13:57:46;5.40;99.90
18189;DHT22;9219;50.396;8.546;2023-12-14T14:00:15;5.50;99.90
18189;DHT22;9219;50.396;8.546;2023-12-14T14:02:42;5.60;99.90
18189;DHT22;9219;50.396;8.546;2023-12-14T14:05:10;5.60;99.90
18189;DHT22;9219;50.396;8.546;2023-12-14T14:07:37;5.20;99.90
18189;DHT22;9219;50.396;8.546;2023-12-14T14:15:06;5.10;99.90
18189;DHT22;9219;50.396;8.546;2023-12-14T14:17:34;5.30;99.90
18189;DHT22;9219;50.396;8.546;2023-12-14T14:20:03;5.30;99.90
18189;DHT22;9219;50.396;8.546;2023-12-14T14:22:31;5.30;99.90
18189;DHT22;9219;50.396;8.546;2023-12-14T14:24:59;5.10;99.90
18189;DHT22;9219;50.396;8.546;2023-12-14T14:27:27;5.30;99.90
18189;DHT22;9219;50.396;8.546;2023-12-14T14:29:54;5.30;99.90
18189;DHT22;9219;50.396;8.546;2023-12-14T14:32:23;5.00;99.90
18189;DHT22;9219;50.396;8.546;2023-12-14T14:39:18;4.90;99.90
18189;DHT22;9219;50.396;8.546;2023-12-14T14:41:46;4.90;99.90
18189;DHT22;9219;50.396;8.546;2023-12-14T14:44:13;4.70;99.90
18189;DHT22;9219;50.396;8.546;2023-12-14T14:46:41;4.90;99.90
18189;DHT22;9219;50.396;8.546;2023-12-14T14:49:08;5.00;99.90
18189;DHT22;9219;50.396;8.546;2023-12-14T14:51:35;5.20;99.90
18189;DHT22;9219;50.396;8.546;2023-12-14T14:54:02;5.20;99.90
18189;DHT22;9219;50.396;8.546;2023-12-14T15:01:29;5.20;99.90
18189;DHT22;9219;50.396;8.546;2023-12-14T15:03:56;5.10;99.90
18189;DHT22;9219;50.396;8.546;2023-12-14T15:06:24;5.00;99.90
18189;DHT22;9219;50.396;8.546;2023-12-14T15:08:51;5.10;99.90
18189;DHT22;9219;50.396;8.546;2023-12-14T15:11:19;5.20;99.90
18189;DHT22;9219;50.396;8.546;2023-12-14T15:13:46;5.00;99.90
18189;DHT22;9219;50.396;8.546;2023-12-14T15:16:13;5.10;99.90
18189;DHT22;9219;50.396;8.546;2023-12-14T15:23:46;5.20;99.90
18189;DHT22;9219;50.396;8.546;2023-12-14T15:26:15;4.90;99.90
18189;DHT22;9219;50.396;8.546;2023-12-14T15:28:43;4.90;99.90
18189;DHT22;9219;50.396;8.546;2023-12-14T15:31:10;4.80;99.90
18189;DHT22;9219;50.396;8.546;2023-12-14T15:33:38;4.80;99.90
18189;DHT22;9219;50.396;8.546;2023-12-14T15:36:06;4.70;99.90
18189;DHT22;9219;50.396;8.546;2023-12-14T15:38:33;4.70;99.90
18189;DHT22;9219;50.396;8.546;2023-12-14T15:46:07;4.80;99.90
18189;DHT22;9219;50.396;8.546;2023-12-14T15:48:34;4.70;99.90
18189;DHT22;9219;50.396;8.546;2023-12-14T15:51:03;4.70;99.90
18189;DHT22;9219;50.396;8.546;2023-12-14T15:53:36;4.90;99.90
18189;DHT22;9219;50.396;8.546;2023-12-14T15:56:04;4.80;99.90
18189;DHT22;9219;50.396;8.546;2023-12-14T15:58:31;4.80;99.90
18189;DHT22;9219;50.396;8.546;2023-12-14T16:00:59;4.90;99.90
18189;DHT22;9219;50.396;8.546;2023-12-14T16:08:27;4.70;99.90
18189;DHT22;9219;50.396;8.546;2023-12-14T16:10:56;4.50;99.90
18189;DHT22;9219;50.396;8.546;2023-12-14T16:13:23;4.40;99.90
18189;DHT22;9219;50.396;8.546;2023-12-14T16:15:50;4.50;99.90
18189;DHT22;9219;50.396;8.546;2023-12-14T16:18:18;4.50;99.90
18189;DHT22;9219;50.396;8.546;2023-12-14T16:20:46;4.60;99.90
18189;DHT22;9219;50.396;8.546;2023-12-14T16:23:16;4.80;99.90
18189;DHT22;9219;50.396;8.546;2023-12-14T16:30:39;4.70;99.90
18189;DHT22;9219;50.396;8.546;2023-12-14T16:33:07;4.30;99.90
18189;DHT22;9219;50.396;8.546;2023-12-14T16:35:34;4.30;99.90
18189;DHT22;9219;50.396;8.546;2023-12-14T16:38:02;4.30;99.90
18189;DHT22;9219;50.396;8.546;2023-12-14T16:40:29;4.00;99.90
18189;DHT22;9219;50.396;8.546;2023-12-14T16:42:56;4.10;99.90
18189;DHT22;9219;50.396;8.546;2023-12-14T16:45:23;4.20;99.90
18189;DHT22;9219;50.396;8.546;2023-12-14T16:52:23;4.30;99.90
18189;DHT22;9219;50.396;8.546;2023-12-14T16:54:50;4.20;99.90
18189;DHT22;9219;50.396;8.546;2023-12-14T16:57:18;4.10;99.90
18189;DHT22;9219;50.396;8.546;2023-12-14T16:59:48;4.20;99.90
18189;DHT22;9219;50.396;8.546;2023-12-14T17:02:15;4.30;99.90
18189;DHT22;9219;50.396;8.546;2023-12-14T17:04:42;4.40;99.90
18189;DHT22;9219;50.396;8.546;2023-12-14T17:07:11;4.50;99.90
18189;DHT22;9219;50.396;8.546;2023-12-14T17:14:43;4.40;99.90
18189;DHT22;9219;50.396;8.546;2023-12-14T17:17:11;4.40;99.90
18189;DHT22;9219;50.396;8.546;2023-12-14T17:19:39;4.50;99.90
18189;DHT22;9219;50.396;8.546;2023-12-14T17:22:06;4.30;99.90
18189;DHT22;9219;50.396;8.546;2023-12-14T17:24:34;4.40;99.90
18189;DHT22;9219;50.396;8.546;2023-12-14T17:27:02;4.20;99.90
18189;DHT22;9219;50.396;8.546;2023-12-14T17:29:30;4.10;99.90
18189;DHT22;9219;50.396;8.546;2023-12-14T17:34:55;3.80;99.90
18189;DHT22;9219;50.396;8.546;2023-12-14T17:37:23;3.60;99.90
18189;DHT22;9219;50.396;8.546;2023-12-14T17:39:50;3.70;99.90
18189;DHT22;9219;50.396;8.546;2023-12-14T17:42:18;3.70;99.90
18189;DHT22;9219;50.396;8.546;2023-12-14T17:44:46;3.40;99.90
18189;DHT22;9219;50.396;8.546;2023-12-14T17:47:13;3.60;99.90
18189;DHT22;9219;50.396;8.546;2023-12-14T17:49:41;3.40;99.90
18189;DHT22;9219;50.396;8.546;2023-12-14T17:57:08;3.40;99.90
18189;DHT22;9219;50.396;8.546;2023-12-14T17:59:36;3.30;99.90
18189;DHT22;9219;50.396;8.546;2023-12-14T18:02:07;3.70;99.90
18189;DHT22;9219;50.396;8.546;2023-12-14T18:04:38;3.70;99.90
18189;DHT22;9219;50.396;8.546;2023-12-14T18:07:06;3.70;99.90
18189;DHT22;9219;50.396;8.546;2023-12-14T18:09:36;3.50;99.90
18189;DHT22;9219;50.396;8.546;2023-12-14T18:12:04;3.70;99.90
18189;DHT22;9219;50.396;8.546;2023-12-14T18:19:38;3.60;99.90
18189;DHT22;9219;50.396;8.546;2023-12-14T18:22:05;3.40;99.90
18189;DHT22;9219;50.396;8.546;2023-12-14T18:24:32;3.40;99.90
18189;DHT22;9219;50.396;8.546;2023-12-14T18:27:02;3.10;99.90
18189;DHT22;9219;50.396;8.546;2023-12-14T18:29:30;3.40;99.90
18189;DHT22;9219;50.396;8.546;2023-12-14T18:31:58;3.90;99.90
18189;DHT22;9219;50.396;8.546;2023-12-14T18:34:25;3.90;99.90
18189;DHT22;9219;50.396;8.546;2023-12-14T18:36:53;4.00;99.90
18189;DHT22;9219;50.396;8.546;2023-12-14T18:42:15;3.80;99.90
18189;DHT22;9219;50.396;8.546;2023-12-14T18:44:43;3.90;99.90
18189;DHT22;9219;50.396;8.546;2023-12-14T18:47:12;3.90;99.90
18189;DHT22;9219;50.396;8.546;2023-12-14T18:49:42;3.90;99.90
18189;DHT22;9219;50.396;8.546;2023-12-14T18:52:09;4.20;99.90
18189;DHT22;9219;50.396;8.546;2023-12-14T18:54:38;4.30;99.90
18189;DHT22;9219;50.396;8.546;2023-12-14T18:57:06;4.40;99.90
18189;DHT22;9219;50.396;8.546;2023-12-14T19:04:40;4.50;99.90
18189;DHT22;9219;50.396;8.546;2023-12-14T19:07:09;4.60;99.90
18189;DHT22;9219;50.396;8.546;2023-12-14T19:09:40;4.60;99.90
18189;DHT22;9219;50.396;8.546;2023-12-14T19:12:10;4.40;99.90
18189;DHT22;9219;50.396;8.546;2023-12-14T19:14:43;4.60;99.90
18189;DHT22;9219;50.396;8.546;2023-12-14T19:17:12;4.60;99.90
18189;DHT22;9219;50.396;8.546;2023-12-14T19:19:40;4.20;99.90
18189;DHT22;9219;50.396;8.546;2023-12-14T19:27:14;4.40;99.90
18189;DHT22;9219;50.396;8.546;2023-12-14T19:29:43;4.40;99.90
18189;DHT22;9219;50.396;8.546;2023-12-14T19:32:11;4.40;99.90
18189;DHT22;9219;50.396;8.546;2023-12-14T19:34:40;4.30;99.90
18189;DHT22;9219;50.396;8.546;2023-12-14T19:37:08;4.40;99.90
18189;DHT22;9219;50.396;8.546;2023-12-14T19:39:35;4.50;99.90
18189;DHT22;9219;50.396;8.546;2023-12-14T19:42:03;4.70;99.90
18189;DHT22;9219;50.396;8.546;2023-12-14T19:49:40;5.00;99.90
18189;DHT22;9219;50.396;8.546;2023-12-14T19:52:08;4.90;99.90
18189;DHT22;9219;50.396;8.546;2023-12-14T19:54:37;4.60;99.90
18189;DHT22;9219;50.396;8.546;2023-12-14T19:57:06;4.70;99.90
18189;DHT22;9219;50.396;8.546;2023-12-14T19:59:34;4.80;99.90
18189;DHT22;9219;50.396;8.546;2023-12-14T20:02:05;4.70;99.90
18189;DHT22;9219;50.396;8.546;2023-12-14T20:04:33;4.90;99.90
18189;DHT22;9219;50.396;8.546;2023-12-14T20:12:08;5.00;99.90
18189;DHT22;9219;50.396;8.546;2023-12-14T20:14:36;4.60;99.90
18189;DHT22;9219;50.396;8.546;2023-12-14T20:17:05;4.40;99.90
18189;DHT22;9219;50.396;8.546;2023-12-14T20:19:34;4.30;99.90
18189;DHT22;9219;50.396;8.546;2023-12-14T20:22:02;4.20;99.90
18189;DHT22;9219;50.396;8.546;2023-12-14T20:24:30;4.30;99.90
18189;DHT22;9219;50.396;8.546;2023-12-14T20:26:57;4.20;99.90
18189;DHT22;9219;50.396;8.546;2023-12-14T20:32:35;4.60;99.90
18189;DHT22;9219;50.396;8.546;2023-12-14T20:35:04;4.40;99.90
18189;DHT22;9219;50.396;8.546;2023-12-14T20:37:32;4.50;99.90
18189;DHT22;9219;50.396;8.546;2023-12-14T20:40:10;4.40;99.90
18189;DHT22;9219;50.396;8.546;2023-12-14T20:42:38;4.30;99.90
18189;DHT22;9219;50.396;8.546;2023-12-14T20:45:06;4.20;99.90
18189;DHT22;9219;50.396;8.546;2023-12-14T20:47:34;4.10;99.90
18189;DHT22;9219;50.396;8.546;2023-12-14T20:55:06;4.10;99.90
18189;DHT22;9219;50.396;8.546;2023-12-14T20:57:34;3.80;99.90
18189;DHT22;9219;50.396;8.546;2023-12-14T21:00:02;4.00;99.90
18189;DHT22;9219;50.396;8.546;2023-12-14T21:02:30;4.10;99.90
18189;DHT22;9219;50.396;8.546;2023-12-14T21:04:57;4.40;99.90
18189;DHT22;9219;50.396;8.546;2023-12-14T21:07:25;4.50;99.90
18189;DHT22;9219;50.396;8.546;2023-12-14T21:09:52;4.70;99.90
18189;DHT22;9219;50.396;8.546;2023-12-14T21:17:25;4.40;99.90
18189;DHT22;9219;50.396;8.546;2023-12-14T21:19:53;4.10;99.90
18189;DHT22;9219;50.396;8.546;2023-12-14T21:22:20;3.80;99.90
18189;DHT22;9219;50.396;8.546;2023-12-14T21:24:47;3.80;99.90
18189;DHT22;9219;50.396;8.546;2023-12-14T21:27:17;3.90;99.90